Troutdale, OR (97060)

10:56 AM PDT on September 04, 2015 (GMT -0700)
Kiku | | Change Station
CLOSE
Current Station
Personal Weather Station
Location: Troutdale, OR
Elevation: 190 ft
Nearby Weather Stations

Elev 190 ft 45.53 °N, 122.38 °W | Updated 2 seconds ago

Overcast
Overcast
57.4 °F
Feels Like 57.4 °F
N
0.0
Wind Variable Wind from WSW
Gusts 4.0 mph

Today
High -- | Low -- °F
--% Chance of Precip.
Yesterday
High -- | Low -- °F
Precip. -- in
6:34 AM 7:41 PM
Waning Gibbous, 57% visible
Pressure 29.99 in
Visibility 10.0 miles
Clouds Overcast 1900 ft
Dew Point 50 °F
Humidity 75%
Rainfall 0.00 in
Snow Depth Not available.
UV 2 out of 12
Pollen 3.10 out of 12
Air Quality Not available.
Flu Activity Not available.
METAR KTTD 041753Z 24005KT 10SM OVC019 13/09 A2999 RMK AO2 SLP156 T01330089 10133 20094 52000
Pressure 29.99 in
Visibility 10.0 miles
Clouds Overcast 1900 ft
Dew Point 50 °F
Humidity 75%
Rainfall 0.00 in
Snow Depth Not available.
UV 2 out of 12
Pollen 3.10 out of 12
Air Quality Not available.
Flu Activity Not available.
METAR KTTD 041753Z 24005KT 10SM OVC019 13/09 A2999 RMK AO2 SLP156 T01330089 10133 20094 52000

10-Day Weather Forecast

×

Almanac

Astronomy

Sep. 04, 2015 Rise Set
Actual Time
Civil Twilight
Nautical Twilight
Astronomical Twilight
Moon
Length of Visible Light
Length of Day
Tomorrow will be .
, % of the Moon is Illuminated

Today's Extremes

State Highs State Lows

Community

WunderPhotos

Upload Photos

1,852,250 photos uploaded!

WunderBlogs® & News

Nearby

Air Quality

  Air Quality AQ Index Pollutant
Not available.

Snow Depth

Station Depth Elevation

Earthquake Activity

City Distance Mag. Time & Date
Minimum magnitude displayed is 2.5.

Coastal Water Temperatures

Place Temperature

Stations

Nearby Weather Stations

Station Location Temp. Windchill Dew Point Humidity Wind Precip. Elev Updated Type